createdAt,value
2023-09-28T00:00:25.043Z,99019.25
2023-09-28T00:00:38.811Z,99012.16
2023-09-28T00:00:51.701Z,99015.53
2023-09-28T00:01:04.978Z,99011.03
2023-09-28T00:01:18.967Z,99010.91
2023-09-28T00:01:31.848Z,99016.22
2023-09-28T00:01:45.403Z,99015.16
2023-09-28T00:01:58.672Z,99004.53
2023-09-28T00:02:11.632Z,99013.44
2023-09-28T00:02:24.529Z,99012.56
2023-09-28T00:02:37.568Z,99013.44
2023-09-28T00:02:51.427Z,99013.44
2023-09-28T00:03:08.649Z,99014.19
2023-09-28T00:03:21.728Z,99009.59
2023-09-28T00:03:34.704Z,99012.25
2023-09-28T00:03:48.536Z,99014.84
2023-09-28T00:04:01.462Z,99009.69
2023-09-28T00:04:14.346Z,99006.25
2023-09-28T00:04:27.177Z,99013.44
2023-09-28T00:04:40.044Z,99008.94
2023-09-28T00:04:52.913Z,99007.97
2023-09-28T00:05:06.288Z,99006.25
2023-09-28T00:05:21.115Z,99010.66
2023-09-28T00:05:34.329Z,99004.53
2023-09-28T00:06:18.093Z,99007.75
2023-09-28T00:06:30.920Z,99004.34
2023-09-28T00:06:43.878Z,99006.91
2023-09-28T00:06:56.776Z,99006.16
2023-09-28T00:07:09.754Z,99004.34
2023-09-28T00:07:22.669Z,99014.28
2023-09-28T00:07:35.519Z,99006.03
2023-09-28T00:07:48.963Z,99005.09
2023-09-28T00:08:01.956Z,99004.22
2023-09-28T00:08:14.889Z,99006.69
2023-09-28T00:08:27.735Z,99005.75
2023-09-28T00:08:40.658Z,99012.16
2023-09-28T00:08:53.465Z,99009.59
2023-09-28T00:09:07.019Z,99010.53
2023-09-28T00:09:20.196Z,99007.00
2023-09-28T00:09:34.155Z,99007.22
2023-09-28T00:09:47.072Z,99007.47
2023-09-28T00:09:59.896Z,99011.13
2023-09-28T00:10:14.068Z,99007.59
2023-09-28T00:10:26.947Z,99015.53
2023-09-28T00:10:39.785Z,99008.53
2023-09-28T00:10:52.702Z,99004.63
2023-09-28T00:11:05.918Z,99007.97
2023-09-28T00:11:18.785Z,99006.03
2023-09-28T00:11:31.607Z,99013.72
2023-09-28T00:11:46.140Z,99011.19
2023-09-28T00:11:58.975Z,99011.78
2023-09-28T00:12:30.364Z,99007.66
2023-09-28T00:12:44.968Z,99008.34
2023-09-28T00:12:57.797Z,99003.00
2023-09-28T00:13:10.611Z,99008.41
2023-09-28T00:13:23.448Z,99011.78
2023-09-28T00:13:36.328Z,99013.50
2023-09-28T00:13:49.180Z,99010.31
2023-09-28T00:14:02.056Z,99007.56
2023-09-28T00:14:15.081Z,99006.59
2023-09-28T00:14:27.989Z,99009.75
2023-09-28T00:14:40.794Z,99005.47
2023-09-28T00:14:53.611Z,99012.75
2023-09-28T00:15:06.971Z,99012.44
2023-09-28T00:15:22.453Z,99009.56
2023-09-28T00:15:35.528Z,99006.00
2023-09-28T00:15:48.334Z,99010.03
2023-09-28T00:16:01.145Z,99006.50
2023-09-28T00:16:13.976Z,99004.56
2023-09-28T00:16:26.830Z,99004.47
2023-09-28T00:16:41.324Z,99005.44
2023-09-28T00:16:54.235Z,99004.56
2023-09-28T00:17:09.679Z,99008.88
2023-09-28T00:17:22.736Z,99002.66
2023-09-28T00:17:35.973Z,99004.56
2023-09-28T00:17:49.264Z,99009.19
2023-09-28T00:18:02.647Z,99005.53
2023-09-28T00:18:15.550Z,99005.31
2023-09-28T00:18:28.558Z,99008.88
2023-09-28T00:18:41.404Z,99007.34
2023-09-28T00:18:54.229Z,99004.00
2023-09-28T00:19:09.821Z,99006.00
2023-09-28T00:19:22.720Z,99004.09
2023-09-28T00:19:35.806Z,99006.97
2023-09-28T00:19:48.715Z,99007.94
2023-09-28T00:20:01.732Z,99006.22
2023-09-28T00:20:18.943Z,99001.81
2023-09-28T00:20:31.900Z,99006.22
2023-09-28T00:20:45.103Z,99006.22
2023-09-28T00:20:58.050Z,99011.28
2023-09-28T00:21:10.907Z,99003.06
2023-09-28T00:21:23.728Z,99001.41
2023-09-28T00:21:36.853Z,99008.50
2023-09-28T00:21:50.259Z,99007.34
2023-09-28T00:22:03.100Z,99007.34
2023-09-28T00:22:16.044Z,99003.91
2023-09-28T00:22:28.942Z,99003.06
2023-09-28T00:22:44.947Z,99006.28
2023-09-28T00:22:58.768Z,99004.66
2023-09-28T00:23:11.677Z,99000.63
2023-09-28T00:23:24.560Z,99006.84
2023-09-28T00:23:37.659Z,99005.44
2023-09-28T00:23:50.524Z,99003.81
2023-09-28T00:24:04.048Z,99002.19
2023-09-28T00:24:17.069Z,98995.47
2023-09-28T00:24:29.955Z,98996.44
2023-09-28T00:24:43.823Z,99001.31
2023-09-28T00:24:57.031Z,99001.78
2023-09-28T00:25:13.024Z,98998.91
2023-09-28T00:25:25.920Z,98997.75
2023-09-28T00:25:38.838Z,98997.81
2023-09-28T00:25:52.418Z,98988.84
2023-09-28T00:26:06.157Z,99001.31
2023-09-28T00:26:20.373Z,98999.00
2023-09-28T00:26:33.239Z,98997.94
2023-09-28T00:26:48.418Z,98997.28
2023-09-28T00:27:01.231Z,99002.00
2023-09-28T00:27:14.058Z,99000.28
2023-09-28T00:27:27.096Z,99005.63
2023-09-28T00:27:40.511Z,99001.50
2023-09-28T00:28:02.358Z,99004.28
2023-09-28T00:28:15.278Z,99003.22
2023-09-28T00:28:28.688Z,99003.22
2023-09-28T00:28:41.550Z,98997.88
2023-09-28T00:28:54.453Z,98999.53
2023-09-28T00:29:07.487Z,99003.91
2023-09-28T00:29:20.620Z,98999.53
2023-09-28T00:29:33.557Z,98994.44
2023-09-28T00:29:47.940Z,99001.81
2023-09-28T00:30:00.772Z,99000.75
2023-09-28T00:30:14.947Z,98997.13
2023-09-28T00:30:28.032Z,98991.84
2023-09-28T00:30:40.940Z,99003.66
2023-09-28T00:30:53.894Z,98998.72
2023-09-28T00:31:07.511Z,99000.66
2023-09-28T00:31:20.545Z,99003.34
2023-09-28T00:31:33.479Z,99000.09
2023-09-28T00:31:46.430Z,98998.19
2023-09-28T00:31:59.337Z,99001.41
2023-09-28T00:32:13.629Z,99001.63
2023-09-28T00:32:26.480Z,99000.00
2023-09-28T00:32:39.489Z,99000.66
2023-09-28T00:32:53.851Z,99002.28
2023-09-28T00:33:07.173Z,98998.72
2023-09-28T00:33:20.057Z,98997.78
2023-09-28T00:33:32.858Z,99003.13
2023-09-28T00:33:45.710Z,98997.13
2023-09-28T00:33:58.550Z,98995.41
2023-09-28T00:34:11.358Z,98996.34
2023-09-28T00:34:24.225Z,98993.78
2023-09-28T00:34:37.111Z,98995.50
2023-09-28T00:34:51.935Z,99001.72
2023-09-28T00:35:08.339Z,98999.03
2023-09-28T00:35:21.477Z,99004.50
2023-09-28T00:35:52.867Z,99002.69
2023-09-28T00:36:05.677Z,98998.28
2023-09-28T00:36:19.028Z,99000.00
2023-09-28T00:36:31.852Z,98999.34
2023-09-28T00:36:44.992Z,98999.41
2023-09-28T00:36:57.860Z,99004.59
2023-09-28T00:37:10.753Z,98999.41
2023-09-28T00:37:23.567Z,98999.53
2023-09-28T00:37:36.443Z,98997.69
2023-09-28T00:37:49.854Z,99001.25
2023-09-28T00:38:02.887Z,99004.22
2023-09-28T00:38:15.794Z,99001.84
2023-09-28T00:38:28.628Z,98996.41
2023-09-28T00:38:41.452Z,98995.22
2023-09-28T00:38:54.259Z,99000.47
2023-09-28T00:39:07.955Z,99002.78
2023-09-28T00:39:20.783Z,99001.81
2023-09-28T00:39:34.467Z,99003.84
2023-09-28T00:39:49.945Z,98999.53
2023-09-28T00:40:09.635Z,98996.19
2023-09-28T00:40:34.743Z,99001.66
2023-09-28T00:40:47.639Z,98998.56
2023-09-28T00:41:00.515Z,98996.41
2023-09-28T00:41:14.106Z,98998.22
2023-09-28T00:41:27.061Z,98998.88
2023-09-28T00:41:39.958Z,99004.59
2023-09-28T00:41:52.847Z,98999.53
2023-09-28T00:42:06.645Z,99000.09
2023-09-28T00:42:19.466Z,99004.50
2023-09-28T00:42:32.301Z,98999.34
2023-09-28T00:42:45.954Z,99004.50
2023-09-28T00:42:59.121Z,98997.44
2023-09-28T00:43:11.913Z,99004.59
2023-09-28T00:43:30.984Z,99005.25
2023-09-28T00:43:44.144Z,98999.16
2023-09-28T00:44:01.339Z,98997.22
2023-09-28T00:44:14.716Z,98998.94
2023-09-28T00:44:27.638Z,98998.28
2023-09-28T00:44:40.454Z,99000.09
2023-09-28T00:44:53.322Z,99003.75
2023-09-28T00:45:06.876Z,98998.50
2023-09-28T00:45:21.222Z,99006.59
2023-09-28T00:45:34.028Z,98996.56
2023-09-28T00:45:47.524Z,98996.34
2023-09-28T00:46:00.390Z,99008.16
2023-09-28T00:46:15.722Z,98995.72
2023-09-28T00:46:33.435Z,98999.25
2023-09-28T00:46:46.470Z,99002.31
2023-09-28T00:46:59.402Z,98994.56
2023-09-28T00:47:12.379Z,99002.31
2023-09-28T00:47:25.302Z,99007.56
2023-09-28T00:47:41.229Z,99002.41
2023-09-28T00:48:00.756Z,99003.16
2023-09-28T00:48:13.705Z,98999.72
2023-09-28T00:48:26.553Z,98997.06
2023-09-28T00:48:42.330Z,99001.56
2023-09-28T00:49:04.797Z,99001.44
2023-09-28T00:49:17.695Z,99000.88
2023-09-28T00:49:30.671Z,99004.53
2023-09-28T00:49:45.051Z,99000.78
2023-09-28T00:49:57.993Z,98999.94
2023-09-28T00:50:16.075Z,99002.63
2023-09-28T00:50:29.833Z,99004.22
2023-09-28T00:50:42.751Z,99000.78
2023-09-28T00:50:55.580Z,99003.69
2023-09-28T00:51:08.430Z,98994.78
2023-09-28T00:51:21.257Z,98999.28
2023-09-28T00:51:34.991Z,98995.63
2023-09-28T00:51:48.507Z,98998.41
2023-09-28T00:52:01.339Z,99000.63
2023-09-28T00:52:17.774Z,99002.44
2023-09-28T00:52:31.159Z,99001.47
2023-09-28T00:52:45.108Z,98994.09
2023-09-28T00:53:01.893Z,98997.72
2023-09-28T00:53:15.789Z,98999.44
2023-09-28T00:53:28.633Z,98999.56
2023-09-28T00:53:41.452Z,98998.59
2023-09-28T00:53:55.741Z,98997.94
2023-09-28T00:54:08.587Z,98992.47
2023-09-28T00:54:22.021Z,98994.09
2023-09-28T00:54:35.886Z,98993.44
2023-09-28T00:54:48.704Z,98992.56
2023-09-28T00:55:01.514Z,98998.69
2023-09-28T00:55:16.292Z,99000.50
2023-09-28T00:55:29.326Z,98995.16
2023-09-28T00:55:42.276Z,99001.38
2023-09-28T00:55:57.881Z,98996.13
2023-09-28T00:56:10.804Z,98996.22
2023-09-28T00:56:24.306Z,98996.31
2023-09-28T00:56:37.725Z,99003.28
2023-09-28T00:56:50.956Z,99005.31
2023-09-28T00:57:05.175Z,99001.47
2023-09-28T00:57:18.815Z,99003.94
2023-09-28T00:57:34.760Z,99001.16
2023-09-28T00:57:48.187Z,99006.34
2023-09-28T00:58:02.483Z,99000.22
2023-09-28T00:58:15.447Z,98999.06
2023-09-28T00:58:28.314Z,99000.03
2023-09-28T00:58:41.169Z,98998.00
2023-09-28T00:58:54.056Z,99002.19
2023-09-28T00:59:07.116Z,98998.88
2023-09-28T00:59:20.163Z,98997.25
2023-09-28T00:59:33.340Z,98995.53
2023-09-28T00:59:46.191Z,98992.00
2023-09-28T00:59:59.024Z,98992.84
2023-09-28T01:00:29.572Z,99000.03
2023-09-28T01:00:42.574Z,99002.03
2023-09-28T01:00:55.560Z,99004.53
2023-09-28T01:01:11.460Z,99003.00
2023-09-28T01:01:28.260Z,99003.94
2023-09-28T01:01:41.143Z,99003.00
2023-09-28T01:01:56.567Z,99002.13
2023-09-28T01:02:09.535Z,99002.87
2023-09-28T01:02:22.533Z,99005.50
2023-09-28T01:02:35.419Z,99003.00
2023-09-28T01:02:52.319Z,98999.44
2023-09-28T01:03:09.592Z,99003.09
2023-09-28T01:03:22.699Z,98994.28
2023-09-28T01:03:36.093Z,98997.06
2023-09-28T01:03:49.442Z,98997.63
2023-09-28T01:04:06.230Z,99003.47
2023-09-28T01:04:19.086Z,99004.03
2023-09-28T01:04:31.914Z,99000.78
2023-09-28T01:04:44.729Z,99000.59
2023-09-28T01:04:57.590Z,99005.28
2023-09-28T01:05:10.464Z,98996.28
2023-09-28T01:05:34.399Z,99000.78
2023-09-28T01:05:47.302Z,99000.13
2023-09-28T01:06:00.124Z,99001.09
2023-09-28T01:06:13.966Z,98993.91
2023-09-28T01:06:26.829Z,99002.03
2023-09-28T01:06:40.793Z,98998.59
2023-09-28T01:06:53.617Z,99002.87
2023-09-28T01:07:08.071Z,98998.69
2023-09-28T01:07:31.270Z,99003.19
2023-09-28T01:07:44.100Z,98994.78
2023-09-28T01:07:57.298Z,98995.63
2023-09-28T01:08:13.581Z,98998.41
2023-09-28T01:08:26.587Z,99001.25
2023-09-28T01:08:39.435Z,98994.28
2023-09-28T01:08:53.982Z,98998.59
2023-09-28T01:09:11.068Z,98995.81
2023-09-28T01:09:25.502Z,98996.88
2023-09-28T01:09:38.334Z,99001.25
2023-09-28T01:09:51.182Z,98996.13
2023-09-28T01:10:04.516Z,98997.72
2023-09-28T01:10:24.282Z,98997.72
2023-09-28T01:10:37.853Z,98999.84
2023-09-28T01:10:50.814Z,98995.34
2023-09-28T01:11:07.546Z,98993.63
2023-09-28T01:11:21.576Z,98994.41
2023-09-28T01:11:34.505Z,98995.06
2023-09-28T01:11:47.586Z,98996.22
2023-09-28T01:12:00.544Z,99000.50
2023-09-28T01:12:13.730Z,98994.19
2023-09-28T01:12:26.600Z,99006.47
2023-09-28T01:12:42.417Z,98992.16
2023-09-28T01:12:56.461Z,98996.78
2023-09-28T01:13:13.334Z,98995.75
2023-09-28T01:13:28.389Z,98996.66
2023-09-28T01:13:41.396Z,98996.59
2023-09-28T01:13:54.484Z,98990.44
2023-09-28T01:14:07.516Z,99000.31
2023-09-28T01:14:22.495Z,98996.13
2023-09-28T01:14:36.199Z,98997.94
2023-09-28T01:14:53.403Z,98993.53
2023-09-28T01:15:12.447Z,98997.53
2023-09-28T01:15:26.019Z,99001.84
2023-09-28T01:15:47.638Z,98997.25
2023-09-28T01:16:00.497Z,98998.22
2023-09-28T01:16:14.420Z,99001.84
2023-09-28T01:16:27.494Z,98999.06
2023-09-28T01:16:40.926Z,98997.81
2023-09-28T01:16:54.093Z,99001.44
2023-09-28T01:17:09.192Z,98990.62
2023-09-28T01:17:22.185Z,98987.78
2023-09-28T01:17:35.124Z,99001.16
2023-09-28T01:17:48.062Z,99002.78
2023-09-28T01:18:01.546Z,99001.34
2023-09-28T01:18:17.920Z,98994.94
2023-09-28T01:18:30.802Z,98995.72
2023-09-28T01:18:43.645Z,98998.19
2023-09-28T01:18:56.477Z,99000.31
2023-09-28T01:19:10.284Z,98997.44
2023-09-28T01:19:23.250Z,99003.53
2023-09-28T01:19:36.421Z,98992.28
2023-09-28T01:19:49.263Z,98996.56
2023-09-28T01:20:05.078Z,99001.16
2023-09-28T01:20:26.521Z,98995.22
2023-09-28T01:20:46.516Z,98996.84
2023-09-28T01:20:59.450Z,98992.34
2023-09-28T01:21:12.282Z,98993.19
2023-09-28T01:21:25.569Z,98990.72
2023-09-28T01:21:38.451Z,98989.00
2023-09-28T01:21:52.435Z,98991.69
2023-09-28T01:22:11.410Z,98995.53
2023-09-28T01:22:24.480Z,98990.94
2023-09-28T01:22:37.301Z,98991.69
2023-09-28T01:22:51.075Z,98991.78
2023-09-28T01:23:05.973Z,98992.75
2023-09-28T01:23:18.905Z,98990.19
2023-09-28T01:23:31.828Z,98991.03
2023-09-28T01:23:44.834Z,98993.59
2023-09-28T01:23:58.330Z,98986.63
2023-09-28T01:24:12.047Z,98986.91
2023-09-28T01:24:24.903Z,98990.66
2023-09-28T01:24:37.736Z,98981.00
2023-09-28T01:24:50.584Z,98991.62
2023-09-28T01:25:05.027Z,98989.13
2023-09-28T01:25:20.115Z,98988.28
2023-09-28T01:25:33.582Z,98989.91
2023-09-28T01:25:48.479Z,98986.34
2023-09-28T01:26:02.965Z,98985.78
2023-09-28T01:26:15.930Z,98990.38
2023-09-28T01:26:31.733Z,98983.97
2023-09-28T01:26:44.574Z,98985.69
2023-09-28T01:26:57.453Z,98986.72
2023-09-28T01:27:10.325Z,98990.97
2023-09-28T01:27:23.211Z,98995.47
2023-09-28T01:27:36.543Z,98993.81
2023-09-28T01:27:49.445Z,98988.28
2023-09-28T01:28:02.297Z,98989.34
2023-09-28T01:28:17.912Z,98988.44
2023-09-28T01:28:30.849Z,98991.91
2023-09-28T01:28:43.968Z,98985.00
2023-09-28T01:28:57.568Z,98988.44
2023-09-28T01:29:11.216Z,98994.00
2023-09-28T01:29:24.074Z,98984.16
2023-09-28T01:29:36.910Z,98991.44
2023-09-28T01:29:49.797Z,98982.75
2023-09-28T01:30:04.749Z,98988.66
2023-09-28T01:30:17.571Z,98992.03
2023-09-28T01:30:30.435Z,98989.34
2023-09-28T01:30:43.320Z,98990.09
2023-09-28T01:30:56.381Z,98990.00
2023-09-28T01:31:09.232Z,98984.91
2023-09-28T01:31:22.076Z,98987.41
2023-09-28T01:31:34.898Z,98987.22
2023-09-28T01:31:47.787Z,98981.00
2023-09-28T01:32:00.703Z,98987.41
2023-09-28T01:32:13.593Z,98989.13
2023-09-28T01:32:26.498Z,98982.16
2023-09-28T01:32:39.649Z,98988.28
2023-09-28T01:32:53.841Z,98989.13
2023-09-28T01:33:08.932Z,98988.28
2023-09-28T01:33:21.787Z,98988.28
2023-09-28T01:33:34.728Z,98986.25
2023-09-28T01:33:47.649Z,98990.84
2023-09-28T01:34:00.527Z,98989.13
2023-09-28T01:34:13.415Z,98990.19
2023-09-28T01:34:26.334Z,98988.28
2023-09-28T01:34:39.293Z,98987.59
2023-09-28T01:34:52.221Z,98985.00
2023-09-28T01:35:06.070Z,98984.75
2023-09-28T01:35:19.055Z,98990.00
2023-09-28T01:35:31.888Z,98988.94
2023-09-28T01:35:44.768Z,98992.88
2023-09-28T01:36:28.089Z,98985.69
2023-09-28T01:36:41.328Z,98981.22
2023-09-28T01:36:54.130Z,98991.31
2023-09-28T01:37:06.964Z,98996.78
2023-09-28T01:37:20.465Z,98988.06
2023-09-28T01:38:00.238Z,98987.97
2023-09-28T01:38:18.898Z,98990.75
2023-09-28T01:38:41.957Z,98992.38
2023-09-28T01:39:03.434Z,98984.72
2023-09-28T01:39:16.881Z,98988.81
2023-09-28T01:39:29.725Z,98992.44
2023-09-28T01:39:42.548Z,98989.97
2023-09-28T01:39:55.363Z,98989.41
2023-09-28T01:40:09.506Z,98989.31
2023-09-28T01:40:22.328Z,98989.41
2023-09-28T01:40:35.164Z,98989.31
2023-09-28T01:40:48.867Z,98993.22
2023-09-28T01:41:01.714Z,98994.09
2023-09-28T01:41:14.622Z,98990.19
2023-09-28T01:41:27.569Z,98990.06
2023-09-28T01:41:40.391Z,98992.00
2023-09-28T01:41:53.237Z,98989.97
2023-09-28T01:42:06.133Z,98990.53
2023-09-28T01:42:18.954Z,98992.06
2023-09-28T01:42:31.954Z,98995.59
2023-09-28T01:42:45.013Z,98994.66
2023-09-28T01:42:57.854Z,98994.06
2023-09-28T01:43:11.341Z,98990.53
2023-09-28T01:43:24.192Z,98994.94
2023-09-28T01:43:38.167Z,98992.66
2023-09-28T01:43:51.241Z,98994.25
2023-09-28T01:44:04.541Z,98993.59
2023-09-28T01:44:17.644Z,98997.81
2023-09-28T01:44:30.501Z,98994.25
2023-09-28T01:44:43.326Z,99000.00
2023-09-28T01:44:56.154Z,98990.34
2023-09-28T01:45:09.270Z,98995.72
2023-09-28T01:45:22.166Z,98995.22
2023-09-28T01:45:34.995Z,98993.50
2023-09-28T01:45:47.849Z,98997.25
2023-09-28T01:46:00.819Z,98991.91
2023-09-28T01:46:13.979Z,98989.75
2023-09-28T01:46:26.916Z,98989.00
2023-09-28T01:46:40.166Z,98994.84
2023-09-28T01:46:53.091Z,98997.63
2023-09-28T01:47:05.982Z,98994.94
2023-09-28T01:47:18.852Z,98994.09
2023-09-28T01:47:31.732Z,98993.91
2023-09-28T01:47:44.585Z,98997.47
2023-09-28T01:47:57.571Z,98994.37
2023-09-28T01:48:10.529Z,98993.13
2023-09-28T01:48:23.354Z,98996.84
2023-09-28T01:48:37.039Z,98994.53
2023-09-28T01:48:49.968Z,98992.94
2023-09-28T01:49:02.867Z,98994.53
2023-09-28T01:49:15.684Z,98998.06
2023-09-28T01:49:28.494Z,99000.44
2023-09-28T01:49:41.964Z,98995.09
2023-09-28T01:49:54.981Z,98998.19
2023-09-28T01:50:08.147Z,98996.34
2023-09-28T01:50:21.084Z,98994.53
2023-09-28T01:50:34.310Z,98995.72
2023-09-28T01:50:47.305Z,99002.09
2023-09-28T01:51:03.060Z,98999.41
2023-09-28T01:51:15.932Z,98995.41
2023-09-28T01:51:28.835Z,99000.66
2023-09-28T01:51:41.772Z,98998.72
2023-09-28T01:51:54.596Z,98997.97
2023-09-28T01:52:07.433Z,98998.38
2023-09-28T01:52:20.325Z,98995.87
2023-09-28T01:52:33.163Z,98994.06
2023-09-28T01:52:46.038Z,98993.13
2023-09-28T01:52:58.948Z,98997.63
2023-09-28T01:53:11.881Z,98998.06
2023-09-28T01:53:24.937Z,98997.97
2023-09-28T01:53:38.942Z,98992.63
2023-09-28T01:53:52.171Z,99002.37
2023-09-28T01:54:05.327Z,99003.44
2023-09-28T01:54:18.266Z,98995.41
2023-09-28T01:54:31.087Z,98995.59
2023-09-28T01:54:44.355Z,98997.22
2023-09-28T01:54:57.264Z,99000.44
2023-09-28T01:55:10.593Z,98999.22
2023-09-28T01:55:24.490Z,99005.81
2023-09-28T01:55:37.400Z,99000.44
2023-09-28T01:55:51.508Z,99005.06
2023-09-28T01:56:05.622Z,98997.13
2023-09-28T01:56:19.693Z,98996.25
2023-09-28T01:56:32.520Z,99000.38
2023-09-28T01:56:45.424Z,99000.88
2023-09-28T01:56:58.236Z,99001.72
2023-09-28T01:57:11.021Z,98998.06
2023-09-28T01:57:23.886Z,98989.38
2023-09-28T01:57:37.035Z,98997.81
2023-09-28T01:57:49.967Z,99001.16
2023-09-28T01:58:04.977Z,99006.59
2023-09-28T01:58:17.835Z,98999.34
2023-09-28T01:58:31.229Z,99000.59
2023-09-28T01:58:46.226Z,98992.44
2023-09-28T01:58:59.073Z,98994.37
2023-09-28T01:59:12.063Z,98995.44
2023-09-28T01:59:24.957Z,98993.50
2023-09-28T01:59:39.030Z,99000.69
2023-09-28T01:59:51.838Z,99000.59
2023-09-28T02:00:21.119Z,99001.75
2023-09-28T02:00:34.138Z,98994.56
2023-09-28T02:00:47.423Z,98999.19
2023-09-28T02:01:00.271Z,98998.97
2023-09-28T02:01:28.332Z,99003.16
2023-09-28T02:01:41.483Z,99000.47
2023-09-28T02:01:54.454Z,99001.25
2023-09-28T02:02:07.405Z,99003.37
2023-09-28T02:02:22.395Z,99001.84
2023-09-28T02:02:37.429Z,98996.09
2023-09-28T02:02:52.920Z,99003.16
2023-09-28T02:03:07.022Z,98999.72
2023-09-28T02:03:23.000Z,98997.06
2023-09-28T02:03:36.006Z,99000.88
2023-09-28T02:03:48.956Z,99001.75
2023-09-28T02:04:01.827Z,99005.28
2023-09-28T02:04:14.670Z,99002.50
2023-09-28T02:04:27.496Z,98997.06
2023-09-28T02:04:40.348Z,99006.03
2023-09-28T02:04:53.258Z,99000.03
2023-09-28T02:05:07.567Z,99002.87
2023-09-28T02:05:21.079Z,98999.28
2023-09-28T02:05:34.402Z,99002.63
2023-09-28T02:05:47.440Z,98999.94
2023-09-28T02:06:00.305Z,98998.66
2023-09-28T02:06:13.162Z,99002.31
2023-09-28T02:06:26.003Z,98999.06
2023-09-28T02:06:38.891Z,98999.84
2023-09-28T02:06:51.730Z,99004.22
2023-09-28T02:07:05.497Z,99002.81
2023-09-28T02:07:18.797Z,99007.31
2023-09-28T02:07:34.055Z,99003.19
2023-09-28T02:07:46.958Z,99005.13
2023-09-28T02:08:00.786Z,98999.84
2023-09-28T02:08:13.741Z,98994.41
2023-09-28T02:08:26.569Z,99002.44
2023-09-28T02:08:39.375Z,98997.19
2023-09-28T02:08:52.254Z,98999.56
2023-09-28T02:09:06.727Z,99002.53
2023-09-28T02:09:19.971Z,98998.59
2023-09-28T02:09:32.786Z,99003.84
2023-09-28T02:09:45.644Z,99001.25
2023-09-28T02:09:58.656Z,99006.81
2023-09-28T02:10:11.845Z,98998.22
2023-09-28T02:10:24.682Z,99004.63
2023-09-28T02:10:37.601Z,99000.88
2023-09-28T02:10:50.430Z,98993.81
2023-09-28T02:11:04.421Z,99000.13
2023-09-28T02:11:17.361Z,98994.56
2023-09-28T02:11:30.256Z,98992.75
2023-09-28T02:11:44.885Z,98994.56
2023-09-28T02:11:58.185Z,98998.88
2023-09-28T02:12:11.935Z,98993.81
2023-09-28T02:12:24.776Z,98999.53
2023-09-28T02:12:42.788Z,98992.66
2023-09-28T02:12:58.277Z,98994.37
2023-09-28T02:13:13.514Z,98999.94
2023-09-28T02:13:26.362Z,98996.50
2023-09-28T02:13:39.304Z,98995.91
2023-09-28T02:13:52.349Z,99001.66
2023-09-28T02:14:05.428Z,98993.19
2023-09-28T02:14:18.278Z,98995.59
2023-09-28T02:14:31.173Z,98991.22
2023-09-28T02:14:44.024Z,98992.63
2023-09-28T02:14:56.855Z,98990.16
2023-09-28T02:15:15.955Z,98991.84
2023-09-28T02:15:29.012Z,98994.06
2023-09-28T02:15:43.448Z,98990.78
2023-09-28T02:15:56.287Z,98993.56
2023-09-28T02:16:12.726Z,98999.34
2023-09-28T02:16:25.600Z,98997.63
2023-09-28T02:16:38.476Z,98990.44
2023-09-28T02:16:51.451Z,98991.66
2023-09-28T02:17:04.356Z,98986.56
2023-09-28T02:17:17.250Z,98987.63
2023-09-28T02:17:30.173Z,98990.97
2023-09-28T02:17:46.298Z,98991.06
2023-09-28T02:17:59.225Z,98993.94
2023-09-28T02:18:12.064Z,98999.09
2023-09-28T02:18:24.912Z,98994.50
2023-09-28T02:18:37.708Z,98991.22
2023-09-28T02:18:51.296Z,98990.16
2023-09-28T02:19:05.611Z,98989.69
2023-09-28T02:19:18.449Z,98988.09
2023-09-28T02:19:31.289Z,98992.56
2023-09-28T02:19:44.158Z,98991.88
2023-09-28T02:19:57.601Z,98985.97
2023-09-28T02:20:11.096Z,98998.12
2023-09-28T02:20:24.449Z,98994.41
2023-09-28T02:20:37.569Z,98990.47
2023-09-28T02:20:50.628Z,98993.34
2023-09-28T02:21:04.092Z,98987.56
2023-09-28T02:21:16.977Z,98995.81
2023-09-28T02:21:30.634Z,98999.66
2023-09-28T02:21:45.986Z,98992.09
2023-09-28T02:21:58.886Z,98988.13
2023-09-28T02:22:13.047Z,98993.13
2023-09-28T02:22:25.866Z,98982.50
2023-09-28T02:22:44.934Z,98991.41
2023-09-28T02:22:58.569Z,98990.75
2023-09-28T02:23:11.554Z,98988.44
2023-09-28T02:23:24.411Z,98995.31
2023-09-28T02:23:37.272Z,98987.37
2023-09-28T02:23:50.228Z,98992.38
2023-09-28T02:24:03.050Z,98994.09
2023-09-28T02:24:15.929Z,98994.31
2023-09-28T02:24:28.748Z,98987.66
2023-09-28T02:24:41.559Z,98994.84
2023-09-28T02:24:54.384Z,98993.47
2023-09-28T02:25:08.306Z,98988.34
2023-09-28T02:25:23.407Z,98987.69
2023-09-28T02:25:36.285Z,98992.72
2023-09-28T02:25:49.154Z,98988.53
2023-09-28T02:26:08.637Z,98990.91
2023-09-28T02:26:21.517Z,98985.03
2023-09-28T02:26:35.252Z,98986.94
2023-09-28T02:26:48.676Z,98988.22
2023-09-28T02:27:01.521Z,98990.81
2023-09-28T02:27:14.492Z,98987.56
2023-09-28T02:27:27.517Z,98986.03
2023-09-28T02:27:40.344Z,98990.56
2023-09-28T02:27:53.645Z,98994.31
2023-09-28T02:28:06.509Z,98987.56
2023-09-28T02:28:19.325Z,98985.19
2023-09-28T02:28:32.166Z,98986.16
2023-09-28T02:28:45.115Z,98991.88
2023-09-28T02:28:58.665Z,98989.88
2023-09-28T02:29:13.059Z,98987.25
2023-09-28T02:29:25.979Z,98993.03
2023-09-28T02:29:38.843Z,98990.81
2023-09-28T02:29:51.645Z,98987.37
2023-09-28T02:30:06.180Z,98991.78
2023-09-28T02:30:20.893Z,98990.06
2023-09-28T02:30:33.732Z,98992.94
2023-09-28T02:30:46.617Z,98993.69
2023-09-28T02:31:06.888Z,98997.56
2023-09-28T02:31:19.767Z,98987.03
2023-09-28T02:31:33.026Z,98995.84
2023-09-28T02:31:45.894Z,98999.06
2023-09-28T02:31:58.963Z,98990.75
2023-09-28T02:32:14.686Z,98994.84
2023-09-28T02:32:27.663Z,98991.19
2023-09-28T02:32:41.311Z,98996.97
2023-09-28T02:32:57.163Z,99000.66
2023-09-28T02:33:12.083Z,99000.22
2023-09-28T02:33:26.480Z,98993.59
2023-09-28T02:33:39.350Z,99000.03
2023-09-28T02:33:52.610Z,99000.44
2023-09-28T02:34:05.603Z,99006.12
2023-09-28T02:34:18.452Z,98990.06
2023-09-28T02:34:34.584Z,98996.16
2023-09-28T02:34:48.203Z,98992.47
2023-09-28T02:35:01.126Z,98992.47
2023-09-28T02:35:15.823Z,98999.66
2023-09-28T02:35:30.069Z,98996.16
2023-09-28T02:35:43.062Z,98994.31
2023-09-28T02:35:55.882Z,98999.72
2023-09-28T02:36:09.418Z,98988.34
2023-09-28T02:36:22.671Z,99004.63
2023-09-28T02:36:36.530Z,98992.28
2023-09-28T02:36:49.544Z,98998.09
2023-09-28T02:37:02.527Z,98996.78
2023-09-28T02:37:15.335Z,98997.63
2023-09-28T02:37:28.157Z,98997.75
2023-09-28T02:37:41.431Z,99000.22
2023-09-28T02:37:55.192Z,98994.47
2023-09-28T02:38:08.190Z,98989.38
2023-09-28T02:38:21.124Z,98990.03
2023-09-28T02:38:34.118Z,98992.97
2023-09-28T02:38:47.395Z,98992.31
2023-09-28T02:39:00.279Z,98992.53
2023-09-28T02:39:13.726Z,98990.81
2023-09-28T02:39:29.484Z,98996.47
2023-09-28T02:39:42.373Z,98994.84
2023-09-28T02:39:55.226Z,98998.28
2023-09-28T02:40:09.314Z,98996.66
2023-09-28T02:40:22.234Z,98996.03
2023-09-28T02:40:35.139Z,98999.72
2023-09-28T02:40:48.008Z,99003.97
2023-09-28T02:41:00.880Z,98996.03
2023-09-28T02:41:20.226Z,98995.53
2023-09-28T02:41:33.054Z,98998.84
2023-09-28T02:41:45.898Z,98998.19
2023-09-28T02:41:58.718Z,98994.66
2023-09-28T02:42:11.760Z,98995.63
2023-09-28T02:42:24.633Z,98998.41
2023-09-28T02:42:37.506Z,99000.66
2023-09-28T02:42:50.667Z,98999.34
2023-09-28T02:43:03.802Z,98992.81
2023-09-28T02:43:16.665Z,98995.97